sensor_id;sensor_type;location;lat;lon;timestamp;P1;P2;P0
78408;PMS5003;67697;50.750;-3.270;2023-06-22T00:02:12;17;16;
78408;PMS5003;67697;50.750;-3.270;2023-06-22T00:04:38;22;22;
78408;PMS5003;67697;50.750;-3.270;2023-06-22T00:07:04;17;16;
78408;PMS5003;67697;50.750;-3.270;2023-06-22T00:09:29;23;21;
78408;PMS5003;67697;50.750;-3.270;2023-06-22T00:11:55;22;19;
78408;PMS5003;67697;50.750;-3.270;2023-06-22T00:14:20;22;21;
78408;PMS5003;67697;50.750;-3.270;2023-06-22T00:16:45;25;25;
78408;PMS5003;67697;50.750;-3.270;2023-06-22T00:19:11;25;24;
78408;PMS5003;67697;50.750;-3.270;2023-06-22T00:21:36;25;23;
78408;PMS5003;67697;50.750;-3.270;2023-06-22T00:24:02;18;18;
78408;PMS5003;67697;50.750;-3.270;2023-06-22T00:26:28;20;19;
78408;PMS5003;67697;50.750;-3.270;2023-06-22T00:28:53;25;23;
78408;PMS5003;67697;50.750;-3.270;2023-06-22T00:31:19;20;20;
78408;PMS5003;67697;50.750;-3.270;2023-06-22T00:33:45;19;18;
78408;PMS5003;67697;50.750;-3.270;2023-06-22T00:36:10;23;21;
78408;PMS5003;67697;50.750;-3.270;2023-06-22T00:38:36;24;24;
78408;PMS5003;67697;50.750;-3.270;2023-06-22T00:41:01;29;29;
78408;PMS5003;67697;50.750;-3.270;2023-06-22T00:43:27;25;22;
78408;PMS5003;67697;50.750;-3.270;2023-06-22T00:45:52;28;26;
78408;PMS5003;67697;50.750;-3.270;2023-06-22T00:48:18;23;23;
78408;PMS5003;67697;50.750;-3.270;2023-06-22T00:50:43;24;22;
78408;PMS5003;67697;50.750;-3.270;2023-06-22T00:53:08;24;24;
78408;PMS5003;67697;50.750;-3.270;2023-06-22T00:55:33;27;24;
78408;PMS5003;67697;50.750;-3.270;2023-06-22T00:57:59;30;29;
78408;PMS5003;67697;50.750;-3.270;2023-06-22T01:00:24;28;25;
78408;PMS5003;67697;50.750;-3.270;2023-06-22T01:02:50;28;24;
78408;PMS5003;67697;50.750;-3.270;2023-06-22T01:05:17;28;25;
78408;PMS5003;67697;50.750;-3.270;2023-06-22T01:07:43;26;23;
78408;PMS5003;67697;50.750;-3.270;2023-06-22T01:10:08;22;22;
78408;PMS5003;67697;50.750;-3.270;2023-06-22T01:12:34;30;28;
78408;PMS5003;67697;50.750;-3.270;2023-06-22T01:15:01;28;28;
78408;PMS5003;67697;50.750;-3.270;2023-06-22T01:17:24;27;24;
78408;PMS5003;67697;50.750;-3.270;2023-06-22T01:19:50;26;26;
78408;PMS5003;67697;50.750;-3.270;2023-06-22T01:22:15;24;24;
78408;PMS5003;67697;50.750;-3.270;2023-06-22T01:24:42;28;28;
78408;PMS5003;67697;50.750;-3.270;2023-06-22T01:27:09;23;23;
78408;PMS5003;67697;50.750;-3.270;2023-06-22T01:29:31;24;23;
78408;PMS5003;67697;50.750;-3.270;2023-06-22T01:31:56;26;25;
78408;PMS5003;67697;50.750;-3.270;2023-06-22T01:34:22;26;24;
78408;PMS5003;67697;50.750;-3.270;2023-06-22T01:36:47;21;21;
78408;PMS5003;67697;50.750;-3.270;2023-06-22T01:39:12;27;21;
78408;PMS5003;67697;50.750;-3.270;2023-06-22T01:41:38;29;25;
78408;PMS5003;67697;50.750;-3.270;2023-06-22T01:44:03;25;22;
78408;PMS5003;67697;50.750;-3.270;2023-06-22T01:46:28;23;21;
78408;PMS5003;67697;50.750;-3.270;2023-06-22T01:48:54;26;24;
78408;PMS5003;67697;50.750;-3.270;2023-06-22T01:51:20;27;27;
78408;PMS5003;67697;50.750;-3.270;2023-06-22T01:53:44;22;21;
78408;PMS5003;67697;50.750;-3.270;2023-06-22T01:56:10;18;18;
78408;PMS5003;67697;50.750;-3.270;2023-06-22T01:58:36;16;15;
78408;PMS5003;67697;50.750;-3.270;2023-06-22T02:01:03;17;17;
78408;PMS5003;67697;50.750;-3.270;2023-06-22T02:03:28;22;20;
78408;PMS5003;67697;50.750;-3.270;2023-06-22T02:05:52;18;18;
78408;PMS5003;67697;50.750;-3.270;2023-06-22T02:08:17;20;19;
78408;PMS5003;67697;50.750;-3.270;2023-06-22T02:10:42;19;19;
78408;PMS5003;67697;50.750;-3.270;2023-06-22T02:13:07;21;19;
78408;PMS5003;67697;50.750;-3.270;2023-06-22T02:15:33;26;24;
78408;PMS5003;67697;50.750;-3.270;2023-06-22T02:17:58;18;17;
78408;PMS5003;67697;50.750;-3.270;2023-06-22T02:20:23;18;17;
78408;PMS5003;67697;50.750;-3.270;2023-06-22T02:22:48;19;19;
78408;PMS5003;67697;50.750;-3.270;2023-06-22T02:25:14;18;17;
78408;PMS5003;67697;50.750;-3.270;2023-06-22T02:27:39;17;16;
78408;PMS5003;67697;50.750;-3.270;2023-06-22T02:30:05;20;19;
78408;PMS5003;67697;50.750;-3.270;2023-06-22T02:32:30;19;16;
78408;PMS5003;67697;50.750;-3.270;2023-06-22T02:34:55;15;15;
78408;PMS5003;67697;50.750;-3.270;2023-06-22T02:37:21;27;25;
78408;PMS5003;67697;50.750;-3.270;2023-06-22T02:39:46;19;15;
78408;PMS5003;67697;50.750;-3.270;2023-06-22T02:42:12;17;17;
78408;PMS5003;67697;50.750;-3.270;2023-06-22T02:44:37;21;19;
78408;PMS5003;67697;50.750;-3.270;2023-06-22T02:47:03;21;20;
78408;PMS5003;67697;50.750;-3.270;2023-06-22T02:49:28;17;17;
78408;PMS5003;67697;50.750;-3.270;2023-06-22T02:51:54;16;15;
78408;PMS5003;67697;50.750;-3.270;2023-06-22T02:54:19;18;16;
78408;PMS5003;67697;50.750;-3.270;2023-06-22T02:56:45;16;15;
78408;PMS5003;67697;50.750;-3.270;2023-06-22T02:59:10;14;14;
78408;PMS5003;67697;50.750;-3.270;2023-06-22T03:01:36;12;12;
78408;PMS5003;67697;50.750;-3.270;2023-06-22T03:04:00;19;16;
78408;PMS5003;67697;50.750;-3.270;2023-06-22T03:06:26;14;14;
78408;PMS5003;67697;50.750;-3.270;2023-06-22T03:08:51;16;14;
78408;PMS5003;67697;50.750;-3.270;2023-06-22T03:11:16;13;13;
78408;PMS5003;67697;50.750;-3.270;2023-06-22T03:13:41;18;18;
78408;PMS5003;67697;50.750;-3.270;2023-06-22T03:16:06;16;16;
78408;PMS5003;67697;50.750;-3.270;2023-06-22T03:18:32;17;15;
78408;PMS5003;67697;50.750;-3.270;2023-06-22T03:20:57;12;12;
78408;PMS5003;67697;50.750;-3.270;2023-06-22T03:23:23;12;12;
78408;PMS5003;67697;50.750;-3.270;2023-06-22T03:25:48;10;10;
78408;PMS5003;67697;50.750;-3.270;2023-06-22T03:28:13;14;13;
78408;PMS5003;67697;50.750;-3.270;2023-06-22T03:30:39;14;14;
78408;PMS5003;67697;50.750;-3.270;2023-06-22T03:33:04;16;16;
78408;PMS5003;67697;50.750;-3.270;2023-06-22T03:35:30;13;13;
78408;PMS5003;67697;50.750;-3.270;2023-06-22T03:37:55;10;10;
78408;PMS5003;67697;50.750;-3.270;2023-06-22T03:40:20;16;16;
78408;PMS5003;67697;50.750;-3.270;2023-06-22T03:42:45;12;12;
78408;PMS5003;67697;50.750;-3.270;2023-06-22T03:45:10;14;13;
78408;PMS5003;67697;50.750;-3.270;2023-06-22T03:47:36;14;14;
78408;PMS5003;67697;50.750;-3.270;2023-06-22T03:50:02;17;16;
78408;PMS5003;67697;50.750;-3.270;2023-06-22T03:52:27;20;18;
78408;PMS5003;67697;50.750;-3.270;2023-06-22T03:54:53;18;18;
78408;PMS5003;67697;50.750;-3.270;2023-06-22T03:57:18;14;13;
78408;PMS5003;67697;50.750;-3.270;2023-06-22T03:59:43;19;18;
78408;PMS5003;67697;50.750;-3.270;2023-06-22T04:02:08;17;14;
78408;PMS5003;67697;50.750;-3.270;2023-06-22T04:04:34;19;19;
78408;PMS5003;67697;50.750;-3.270;2023-06-22T04:06:59;18;18;
78408;PMS5003;67697;50.750;-3.270;2023-06-22T04:09:25;18;14;
78408;PMS5003;67697;50.750;-3.270;2023-06-22T04:11:51;18;17;
78408;PMS5003;67697;50.750;-3.270;2023-06-22T04:14:16;19;14;
78408;PMS5003;67697;50.750;-3.270;2023-06-22T04:16:42;12;12;
78408;PMS5003;67697;50.750;-3.270;2023-06-22T04:19:07;14;14;
78408;PMS5003;67697;50.750;-3.270;2023-06-22T04:21:32;18;18;
78408;PMS5003;67697;50.750;-3.270;2023-06-22T04:23:57;13;13;
78408;PMS5003;67697;50.750;-3.270;2023-06-22T04:26:23;15;14;
78408;PMS5003;67697;50.750;-3.270;2023-06-22T04:28:48;18;18;
78408;PMS5003;67697;50.750;-3.270;2023-06-22T04:31:14;15;15;
78408;PMS5003;67697;50.750;-3.270;2023-06-22T04:33:39;21;19;
78408;PMS5003;67697;50.750;-3.270;2023-06-22T04:36:05;14;14;
78408;PMS5003;67697;50.750;-3.270;2023-06-22T04:38:30;11;11;
78408;PMS5003;67697;50.750;-3.270;2023-06-22T04:40:56;15;15;
78408;PMS5003;67697;50.750;-3.270;2023-06-22T04:43:21;17;15;
78408;PMS5003;67697;50.750;-3.270;2023-06-22T04:45:47;16;16;
78408;PMS5003;67697;50.750;-3.270;2023-06-22T04:48:12;13;13;
78408;PMS5003;67697;50.750;-3.270;2023-06-22T04:50:38;16;16;
78408;PMS5003;67697;50.750;-3.270;2023-06-22T04:53:03;17;14;
78408;PMS5003;67697;50.750;-3.270;2023-06-22T04:55:28;18;18;
78408;PMS5003;67697;50.750;-3.270;2023-06-22T04:57:53;15;15;
78408;PMS5003;67697;50.750;-3.270;2023-06-22T05:00:19;11;11;
78408;PMS5003;67697;50.750;-3.270;2023-06-22T05:02:45;12;12;
78408;PMS5003;67697;50.750;-3.270;2023-06-22T05:05:10;15;12;
78408;PMS5003;67697;50.750;-3.270;2023-06-22T05:07:35;9;9;
78408;PMS5003;67697;50.750;-3.270;2023-06-22T05:10:01;15;15;
78408;PMS5003;67697;50.750;-3.270;2023-06-22T05:12:27;14;14;
78408;PMS5003;67697;50.750;-3.270;2023-06-22T05:14:52;12;12;
78408;PMS5003;67697;50.750;-3.270;2023-06-22T05:17:17;11;11;
78408;PMS5003;67697;50.750;-3.270;2023-06-22T05:19:43;10;10;
78408;PMS5003;67697;50.750;-3.270;2023-06-22T05:22:08;10;10;
78408;PMS5003;67697;50.750;-3.270;2023-06-22T05:24:34;10;9;
78408;PMS5003;67697;50.750;-3.270;2023-06-22T05:27:00;9;9;
78408;PMS5003;67697;50.750;-3.270;2023-06-22T05:29:25;12;12;
78408;PMS5003;67697;50.750;-3.270;2023-06-22T05:31:50;8;8;
78408;PMS5003;67697;50.750;-3.270;2023-06-22T05:34:16;10;9;
78408;PMS5003;67697;50.750;-3.270;2023-06-22T05:36:41;10;9;
78408;PMS5003;67697;50.750;-3.270;2023-06-22T05:39:10;9;9;
78408;PMS5003;67697;50.750;-3.270;2023-06-22T05:41:33;10;10;
78408;PMS5003;67697;50.750;-3.270;2023-06-22T05:43:58;11;9;
78408;PMS5003;67697;50.750;-3.270;2023-06-22T05:46:24;10;10;
78408;PMS5003;67697;50.750;-3.270;2023-06-22T05:48:49;13;12;
78408;PMS5003;67697;50.750;-3.270;2023-06-22T05:51:15;10;10;
78408;PMS5003;67697;50.750;-3.270;2023-06-22T05:53:40;11;11;
78408;PMS5003;67697;50.750;-3.270;2023-06-22T05:56:06;12;11;
78408;PMS5003;67697;50.750;-3.270;2023-06-22T05:58:31;12;12;
78408;PMS5003;67697;50.750;-3.270;2023-06-22T06:00:57;9;9;
78408;PMS5003;67697;50.750;-3.270;2023-06-22T06:03:23;9;9;
78408;PMS5003;67697;50.750;-3.270;2023-06-22T06:05:48;12;10;
78408;PMS5003;67697;50.750;-3.270;2023-06-22T06:08:13;11;11;
78408;PMS5003;67697;50.750;-3.270;2023-06-22T06:10:39;10;10;
78408;PMS5003;67697;50.750;-3.270;2023-06-22T06:13:05;12;12;
78408;PMS5003;67697;50.750;-3.270;2023-06-22T06:15:30;10;10;
78408;PMS5003;67697;50.750;-3.270;2023-06-22T06:17:56;11;11;
78408;PMS5003;67697;50.750;-3.270;2023-06-22T06:20:22;11;11;
78408;PMS5003;67697;50.750;-3.270;2023-06-22T06:22:47;10;10;
78408;PMS5003;67697;50.750;-3.270;2023-06-22T06:25:12;9;9;
78408;PMS5003;67697;50.750;-3.270;2023-06-22T06:27:38;15;13;
78408;PMS5003;67697;50.750;-3.270;2023-06-22T06:30:03;10;9;
78408;PMS5003;67697;50.750;-3.270;2023-06-22T06:32:28;11;11;
78408;PMS5003;67697;50.750;-3.270;2023-06-22T06:34:54;12;12;
78408;PMS5003;67697;50.750;-3.270;2023-06-22T06:37:20;12;12;
78408;PMS5003;67697;50.750;-3.270;2023-06-22T06:39:45;11;11;
78408;PMS5003;67697;50.750;-3.270;2023-06-22T06:42:11;10;10;
78408;PMS5003;67697;50.750;-3.270;2023-06-22T06:44:36;11;11;
78408;PMS5003;67697;50.750;-3.270;2023-06-22T06:47:02;11;11;
78408;PMS5003;67697;50.750;-3.270;2023-06-22T06:49:27;14;12;
78408;PMS5003;67697;50.750;-3.270;2023-06-22T06:51:53;10;9;
78408;PMS5003;67697;50.750;-3.270;2023-06-22T06:54:19;16;11;
78408;PMS5003;67697;50.750;-3.270;2023-06-22T06:56:44;13;12;
78408;PMS5003;67697;50.750;-3.270;2023-06-22T06:59:09;13;13;
78408;PMS5003;67697;50.750;-3.270;2023-06-22T07:01:35;11;11;
78408;PMS5003;67697;50.750;-3.270;2023-06-22T07:04:01;13;12;
78408;PMS5003;67697;50.750;-3.270;2023-06-22T07:06:26;11;11;
78408;PMS5003;67697;50.750;-3.270;2023-06-22T07:08:52;12;12;
78408;PMS5003;67697;50.750;-3.270;2023-06-22T07:11:18;13;13;
78408;PMS5003;67697;50.750;-3.270;2023-06-22T07:13:44;12;11;
78408;PMS5003;67697;50.750;-3.270;2023-06-22T07:16:08;14;14;
78408;PMS5003;67697;50.750;-3.270;2023-06-22T07:18:35;12;12;
78408;PMS5003;67697;50.750;-3.270;2023-06-22T07:21:00;10;10;
78408;PMS5003;67697;50.750;-3.270;2023-06-22T07:23:25;13;10;
78408;PMS5003;67697;50.750;-3.270;2023-06-22T07:25:51;9;9;
78408;PMS5003;67697;50.750;-3.270;2023-06-22T07:28:16;11;11;
78408;PMS5003;67697;50.750;-3.270;2023-06-22T07:30:42;9;9;
78408;PMS5003;67697;50.750;-3.270;2023-06-22T07:33:07;14;14;
78408;PMS5003;67697;50.750;-3.270;2023-06-22T07:35:33;12;8;
78408;PMS5003;67697;50.750;-3.270;2023-06-22T07:37:58;9;9;
78408;PMS5003;67697;50.750;-3.270;2023-06-22T07:40:24;10;9;
78408;PMS5003;67697;50.750;-3.270;2023-06-22T07:42:49;8;8;
78408;PMS5003;67697;50.750;-3.270;2023-06-22T07:45:15;9;9;
78408;PMS5003;67697;50.750;-3.270;2023-06-22T07:47:40;11;9;
78408;PMS5003;67697;50.750;-3.270;2023-06-22T07:50:06;8;8;
78408;PMS5003;67697;50.750;-3.270;2023-06-22T07:52:32;10;9;
78408;PMS5003;67697;50.750;-3.270;2023-06-22T07:54:57;10;10;
78408;PMS5003;67697;50.750;-3.270;2023-06-22T07:57:23;12;10;
78408;PMS5003;67697;50.750;-3.270;2023-06-22T07:59:48;9;9;
78408;PMS5003;67697;50.750;-3.270;2023-06-22T08:02:14;11;10;
78408;PMS5003;67697;50.750;-3.270;2023-06-22T08:04:39;9;9;
78408;PMS5003;67697;50.750;-3.270;2023-06-22T08:07:05;8;8;
78408;PMS5003;67697;50.750;-3.270;2023-06-22T08:09:31;11;10;
78408;PMS5003;67697;50.750;-3.270;2023-06-22T08:11:56;9;9;
78408;PMS5003;67697;50.750;-3.270;2023-06-22T08:14:21;11;11;
78408;PMS5003;67697;50.750;-3.270;2023-06-22T08:16:47;6;6;
78408;PMS5003;67697;50.750;-3.270;2023-06-22T08:19:12;14;14;
78408;PMS5003;67697;50.750;-3.270;2023-06-22T08:21:37;9;9;
78408;PMS5003;67697;50.750;-3.270;2023-06-22T08:24:03;11;11;
78408;PMS5003;67697;50.750;-3.270;2023-06-22T08:26:29;7;7;
78408;PMS5003;67697;50.750;-3.270;2023-06-22T08:28:54;11;11;
78408;PMS5003;67697;50.750;-3.270;2023-06-22T08:31:20;7;7;
78408;PMS5003;67697;50.750;-3.270;2023-06-22T08:33:46;12;12;
78408;PMS5003;67697;50.750;-3.270;2023-06-22T08:36:11;10;10;
78408;PMS5003;67697;50.750;-3.270;2023-06-22T08:38:36;11;10;
78408;PMS5003;67697;50.750;-3.270;2023-06-22T08:41:02;14;12;
78408;PMS5003;67697;50.750;-3.270;2023-06-22T08:43:28;9;9;
78408;PMS5003;67697;50.750;-3.270;2023-06-22T08:45:53;10;10;
78408;PMS5003;67697;50.750;-3.270;2023-06-22T08:48:18;12;10;
78408;PMS5003;67697;50.750;-3.270;2023-06-22T08:50:44;9;9;
78408;PMS5003;67697;50.750;-3.270;2023-06-22T08:53:09;8;8;
78408;PMS5003;67697;50.750;-3.270;2023-06-22T08:55:35;9;9;
78408;PMS5003;67697;50.750;-3.270;2023-06-22T08:58:00;8;8;
78408;PMS5003;67697;50.750;-3.270;2023-06-22T09:00:25;9;9;
78408;PMS5003;67697;50.750;-3.270;2023-06-22T09:02:51;6;6;
78408;PMS5003;67697;50.750;-3.270;2023-06-22T09:05:16;7;7;
78408;PMS5003;67697;50.750;-3.270;2023-06-22T09:07:42;7;7;
78408;PMS5003;67697;50.750;-3.270;2023-06-22T09:10:08;7;7;
78408;PMS5003;67697;50.750;-3.270;2023-06-22T09:12:33;7;7;
78408;PMS5003;67697;50.750;-3.270;2023-06-22T09:14:58;9;9;
78408;PMS5003;67697;50.750;-3.270;2023-06-22T09:17:24;9;9;
78408;PMS5003;67697;50.750;-3.270;2023-06-22T09:19:49;8;8;
78408;PMS5003;67697;50.750;-3.270;2023-06-22T09:22:15;5;5;
78408;PMS5003;67697;50.750;-3.270;2023-06-22T09:24:40;9;8;
78408;PMS5003;67697;50.750;-3.270;2023-06-22T09:27:06;8;8;
78408;PMS5003;67697;50.750;-3.270;2023-06-22T09:29:31;6;6;
78408;PMS5003;67697;50.750;-3.270;2023-06-22T09:31:57;6;6;
78408;PMS5003;67697;50.750;-3.270;2023-06-22T09:34:22;6;6;
78408;PMS5003;67697;50.750;-3.270;2023-06-22T09:36:48;5;5;
78408;PMS5003;67697;50.750;-3.270;2023-06-22T09:39:13;8;6;
78408;PMS5003;67697;50.750;-3.270;2023-06-22T09:41:39;5;5;
78408;PMS5003;67697;50.750;-3.270;2023-06-22T09:44:04;6;6;
78408;PMS5003;67697;50.750;-3.270;2023-06-22T09:46:30;6;6;
78408;PMS5003;67697;50.750;-3.270;2023-06-22T09:48:55;7;7;
78408;PMS5003;67697;50.750;-3.270;2023-06-22T09:51:20;6;6;
78408;PMS5003;67697;50.750;-3.270;2023-06-22T09:53:46;6;6;
78408;PMS5003;67697;50.750;-3.270;2023-06-22T09:56:12;6;5;
78408;PMS5003;67697;50.750;-3.270;2023-06-22T09:58:37;5;5;
78408;PMS5003;67697;50.750;-3.270;2023-06-22T10:01:02;5;5;
78408;PMS5003;67697;50.750;-3.270;2023-06-22T10:03:28;5;5;
78408;PMS5003;67697;50.750;-3.270;2023-06-22T10:05:53;4;4;
78408;PMS5003;67697;50.750;-3.270;2023-06-22T10:08:19;9;6;
78408;PMS5003;67697;50.750;-3.270;2023-06-22T10:10:44;6;6;
78408;PMS5003;67697;50.750;-3.270;2023-06-22T10:13:10;7;7;
78408;PMS5003;67697;50.750;-3.270;2023-06-22T10:15:36;5;5;
78408;PMS5003;67697;50.750;-3.270;2023-06-22T10:18:01;4;4;
78408;PMS5003;67697;50.750;-3.270;2023-06-22T10:20:26;5;5;
78408;PMS5003;67697;50.750;-3.270;2023-06-22T10:22:52;6;5;
78408;PMS5003;67697;50.750;-3.270;2023-06-22T10:25:17;8;5;
78408;PMS5003;67697;50.750;-3.270;2023-06-22T10:27:43;5;4;
78408;PMS5003;67697;50.750;-3.270;2023-06-22T10:30:14;5;5;
78408;PMS5003;67697;50.750;-3.270;2023-06-22T10:32:34;4;4;
78408;PMS5003;67697;50.750;-3.270;2023-06-22T10:35:00;4;4;
78408;PMS5003;67697;50.750;-3.270;2023-06-22T10:37:25;6;6;
78408;PMS5003;67697;50.750;-3.270;2023-06-22T10:39:50;4;4;
78408;PMS5003;67697;50.750;-3.270;2023-06-22T10:42:16;5;5;
78408;PMS5003;67697;50.750;-3.270;2023-06-22T10:44:41;3;3;
78408;PMS5003;67697;50.750;-3.270;2023-06-22T10:47:07;4;4;
78408;PMS5003;67697;50.750;-3.270;2023-06-22T10:49:32;4;4;
78408;PMS5003;67697;50.750;-3.270;2023-06-22T10:51:58;6;5;
78408;PMS5003;67697;50.750;-3.270;2023-06-22T10:54:23;3;3;
78408;PMS5003;67697;50.750;-3.270;2023-06-22T10:56:49;4;4;
78408;PMS5003;67697;50.750;-3.270;2023-06-22T10:59:14;3;3;
78408;PMS5003;67697;50.750;-3.270;2023-06-22T11:01:40;5;5;
78408;PMS5003;67697;50.750;-3.270;2023-06-22T11:04:05;4;4;
78408;PMS5003;67697;50.750;-3.270;2023-06-22T11:06:31;5;5;
78408;PMS5003;67697;50.750;-3.270;2023-06-22T11:08:56;5;5;
78408;PMS5003;67697;50.750;-3.270;2023-06-22T11:11:21;3;3;
78408;PMS5003;67697;50.750;-3.270;2023-06-22T11:13:47;5;5;
78408;PMS5003;67697;50.750;-3.270;2023-06-22T11:16:12;4;4;
78408;PMS5003;67697;50.750;-3.270;2023-06-22T11:18:38;4;4;
78408;PMS5003;67697;50.750;-3.270;2023-06-22T11:21:03;6;5;
78408;PMS5003;67697;50.750;-3.270;2023-06-22T11:23:29;7;5;
78408;PMS5003;67697;50.750;-3.270;2023-06-22T11:25:54;3;3;
78408;PMS5003;67697;50.750;-3.270;2023-06-22T11:28:21;4;4;
78408;PMS5003;67697;50.750;-3.270;2023-06-22T11:30:45;4;4;
78408;PMS5003;67697;50.750;-3.270;2023-06-22T11:33:11;6;6;
78408;PMS5003;67697;50.750;-3.270;2023-06-22T11:35:36;5;5;
78408;PMS5003;67697;50.750;-3.270;2023-06-22T11:38:01;6;6;
78408;PMS5003;67697;50.750;-3.270;2023-06-22T11:40:27;5;5;
78408;PMS5003;67697;50.750;-3.270;2023-06-22T11:42:52;6;6;
78408;PMS5003;67697;50.750;-3.270;2023-06-22T11:45:18;4;4;
78408;PMS5003;67697;50.750;-3.270;2023-06-22T11:47:43;5;5;
78408;PMS5003;67697;50.750;-3.270;2023-06-22T11:50:09;5;5;
78408;PMS5003;67697;50.750;-3.270;2023-06-22T11:52:34;4;4;
78408;PMS5003;67697;50.750;-3.270;2023-06-22T11:55:00;9;7;
78408;PMS5003;67697;50.750;-3.270;2023-06-22T11:57:25;7;7;
78408;PMS5003;67697;50.750;-3.270;2023-06-22T11:59:50;4;4;
78408;PMS5003;67697;50.750;-3.270;2023-06-22T12:02:16;6;6;
78408;PMS5003;67697;50.750;-3.270;2023-06-22T12:04:41;6;6;
78408;PMS5003;67697;50.750;-3.270;2023-06-22T12:07:07;5;5;
78408;PMS5003;67697;50.750;-3.270;2023-06-22T12:09:32;5;5;
78408;PMS5003;67697;50.750;-3.270;2023-06-22T12:11:58;4;4;
78408;PMS5003;67697;50.750;-3.270;2023-06-22T12:14:23;4;4;
78408;PMS5003;67697;50.750;-3.270;2023-06-22T12:16:49;5;5;
78408;PMS5003;67697;50.750;-3.270;2023-06-22T12:19:14;5;5;
78408;PMS5003;67697;50.750;-3.270;2023-06-22T12:21:40;6;6;
78408;PMS5003;67697;50.750;-3.270;2023-06-22T12:24:05;4;4;
78408;PMS5003;67697;50.750;-3.270;2023-06-22T12:26:30;5;5;
78408;PMS5003;67697;50.750;-3.270;2023-06-22T12:28:56;6;5;
78408;PMS5003;67697;50.750;-3.270;2023-06-22T12:31:21;2;2;
78408;PMS5003;67697;50.750;-3.270;2023-06-22T12:33:47;8;7;
78408;PMS5003;67697;50.750;-3.270;2023-06-22T12:36:12;5;5;
78408;PMS5003;67697;50.750;-3.270;2023-06-22T12:38:37;4;4;
78408;PMS5003;67697;50.750;-3.270;2023-06-22T12:41:03;6;6;
78408;PMS5003;67697;50.750;-3.270;2023-06-22T12:43:28;4;4;
78408;PMS5003;67697;50.750;-3.270;2023-06-22T12:45:54;5;5;
78408;PMS5003;67697;50.750;-3.270;2023-06-22T12:48:19;4;4;
78408;PMS5003;67697;50.750;-3.270;2023-06-22T12:50:45;4;4;
78408;PMS5003;67697;50.750;-3.270;2023-06-22T12:53:10;3;3;
78408;PMS5003;67697;50.750;-3.270;2023-06-22T12:55:36;7;5;
78408;PMS5003;67697;50.750;-3.270;2023-06-22T12:58:01;3;3;
78408;PMS5003;67697;50.750;-3.270;2023-06-22T13:00:26;4;4;
78408;PMS5003;67697;50.750;-3.270;2023-06-22T13:02:52;4;4;
78408;PMS5003;67697;50.750;-3.270;2023-06-22T13:05:18;5;5;
78408;PMS5003;67697;50.750;-3.270;2023-06-22T13:07:43;5;5;
78408;PMS5003;67697;50.750;-3.270;2023-06-22T13:10:08;6;3;
78408;PMS5003;67697;50.750;-3.270;2023-06-22T13:12:34;5;3;
78408;PMS5003;67697;50.750;-3.270;2023-06-22T13:14:59;2;2;
78408;PMS5003;67697;50.750;-3.270;2023-06-22T13:17:24;3;3;
78408;PMS5003;67697;50.750;-3.270;2023-06-22T13:19:50;5;3;
78408;PMS5003;67697;50.750;-3.270;2023-06-22T13:24:41;4;4;
78408;PMS5003;67697;50.750;-3.270;2023-06-22T13:27:06;4;4;
78408;PMS5003;67697;50.750;-3.270;2023-06-22T13:29:32;4;4;
78408;PMS5003;67697;50.750;-3.270;2023-06-22T13:31:57;4;3;
78408;PMS5003;67697;50.750;-3.270;2023-06-22T13:34:23;6;6;
78408;PMS5003;67697;50.750;-3.270;2023-06-22T13:36:48;3;3;
78408;PMS5003;67697;50.750;-3.270;2023-06-22T13:39:13;3;3;
78408;PMS5003;67697;50.750;-3.270;2023-06-22T13:41:39;5;3;
78408;PMS5003;67697;50.750;-3.270;2023-06-22T13:44:05;5;5;
78408;PMS5003;67697;50.750;-3.270;2023-06-22T13:46:30;4;4;
78408;PMS5003;67697;50.750;-3.270;2023-06-22T13:48:55;4;4;
78408;PMS5003;67697;50.750;-3.270;2023-06-22T13:51:21;4;3;
78408;PMS5003;67697;50.750;-3.270;2023-06-22T13:53:46;3;3;
78408;PMS5003;67697;50.750;-3.270;2023-06-22T13:56:12;2;2;
78408;PMS5003;67697;50.750;-3.270;2023-06-22T13:58:37;4;4;
78408;PMS5003;67697;50.750;-3.270;2023-06-22T14:01:03;3;3;
78408;PMS5003;67697;50.750;-3.270;2023-06-22T14:03:28;5;5;
78408;PMS5003;67697;50.750;-3.270;2023-06-22T14:05:53;6;5;
78408;PMS5003;67697;50.750;-3.270;2023-06-22T14:08:19;4;4;
78408;PMS5003;67697;50.750;-3.270;2023-06-22T14:10:44;6;5;
78408;PMS5003;67697;50.750;-3.270;2023-06-22T14:13:10;5;4;
78408;PMS5003;67697;50.750;-3.270;2023-06-22T14:15:35;4;4;
78408;PMS5003;67697;50.750;-3.270;2023-06-22T14:18:01;3;3;
78408;PMS5003;67697;50.750;-3.270;2023-06-22T14:20:26;2;2;
78408;PMS5003;67697;50.750;-3.270;2023-06-22T14:22:52;4;4;
78408;PMS5003;67697;50.750;-3.270;2023-06-22T14:25:17;7;6;
78408;PMS5003;67697;50.750;-3.270;2023-06-22T14:27:42;4;4;
78408;PMS5003;67697;50.750;-3.270;2023-06-22T14:30:08;4;4;
78408;PMS5003;67697;50.750;-3.270;2023-06-22T14:32:33;4;4;
78408;PMS5003;67697;50.750;-3.270;2023-06-22T14:34:59;3;3;
78408;PMS5003;67697;50.750;-3.270;2023-06-22T14:37:24;5;5;
78408;PMS5003;67697;50.750;-3.270;2023-06-22T14:39:50;2;2;
78408;PMS5003;67697;50.750;-3.270;2023-06-22T14:42:15;5;5;
78408;PMS5003;67697;50.750;-3.270;2023-06-22T14:44:41;6;5;
78408;PMS5003;67697;50.750;-3.270;2023-06-22T14:47:06;7;6;
78408;PMS5003;67697;50.750;-3.270;2023-06-22T14:49:31;5;4;
78408;PMS5003;67697;50.750;-3.270;2023-06-22T14:51:57;4;4;
78408;PMS5003;67697;50.750;-3.270;2023-06-22T14:54:22;3;3;
78408;PMS5003;67697;50.750;-3.270;2023-06-22T14:56:48;3;3;
78408;PMS5003;67697;50.750;-3.270;2023-06-22T14:59:13;5;5;
78408;PMS5003;67697;50.750;-3.270;2023-06-22T15:01:39;5;5;
78408;PMS5003;67697;50.750;-3.270;2023-06-22T15:04:04;3;3;
78408;PMS5003;67697;50.750;-3.270;2023-06-22T15:06:29;3;3;
78408;PMS5003;67697;50.750;-3.270;2023-06-22T15:08:55;1;1;
78408;PMS5003;67697;50.750;-3.270;2023-06-22T15:11:20;2;2;
78408;PMS5003;67697;50.750;-3.270;2023-06-22T15:13:46;4;4;
78408;PMS5003;67697;50.750;-3.270;2023-06-22T15:16:11;2;2;
78408;PMS5003;67697;50.750;-3.270;2023-06-22T15:18:37;2;2;
78408;PMS5003;67697;50.750;-3.270;2023-06-22T15:21:03;4;4;
78408;PMS5003;67697;50.750;-3.270;2023-06-22T15:23:27;4;4;
78408;PMS5003;67697;50.750;-3.270;2023-06-22T15:25:53;3;3;
78408;PMS5003;67697;50.750;-3.270;2023-06-22T15:28:18;3;3;
78408;PMS5003;67697;50.750;-3.270;2023-06-22T15:30:44;5;3;
78408;PMS5003;67697;50.750;-3.270;2023-06-22T15:33:09;3;3;
78408;PMS5003;67697;50.750;-3.270;2023-06-22T15:35:35;4;4;
78408;PMS5003;67697;50.750;-3.270;2023-06-22T15:38:00;3;3;
78408;PMS5003;67697;50.750;-3.270;2023-06-22T15:40:25;2;2;
78408;PMS5003;67697;50.750;-3.270;2023-06-22T15:42:51;3;3;
78408;PMS5003;67697;50.750;-3.270;2023-06-22T15:45:17;3;3;
78408;PMS5003;67697;50.750;-3.270;2023-06-22T15:47:42;2;2;
78408;PMS5003;67697;50.750;-3.270;2023-06-22T15:50:07;2;2;
78408;PMS5003;67697;50.750;-3.270;2023-06-22T15:52:33;5;2;
78408;PMS5003;67697;50.750;-3.270;2023-06-22T15:54:58;2;2;
78408;PMS5003;67697;50.750;-3.270;2023-06-22T15:57:25;4;3;
78408;PMS5003;67697;50.750;-3.270;2023-06-22T15:59:49;6;4;
78408;PMS5003;67697;50.750;-3.270;2023-06-22T16:02:15;3;3;
78408;PMS5003;67697;50.750;-3.270;2023-06-22T16:04:40;5;5;
78408;PMS5003;67697;50.750;-3.270;2023-06-22T16:07:05;5;5;
78408;PMS5003;67697;50.750;-3.270;2023-06-22T16:09:31;4;4;